Time;durP1;ratioP1;P1;durP2;ratioP2;P2;SDS_P1;SDS_P2;PMS_P1;PMS_P2;Temp;Humidity;BMP_temperature;BMP_pressure;BME280_temperature;BME280_humidity;BME280_pressure;Samples;Min_cycle;Max_cycle;Signal;HPM_P1;HPM_P2
2023/05/01 00:00:52;;;;;;;8.73;3.80;;;;;;;;;;5015776;28;20030;-62
2023/05/01 00:03:18;;;;;;;7.88;3.70;;;;;;;;;;5015442;28;20053;-61
2023/05/01 00:05:44;;;;;;;9.15;3.45;;;;;;;;;;5019860;28;20029;-61
2023/05/01 00:08:10;;;;;;;10.75;3.92;;;;;;;;;;5035414;28;20068;-61
2023/05/01 00:10:36;;;;;;;7.95;3.78;;;;;;;;;;5031124;28;20048;-62
2023/05/01 00:13:02;;;;;;;7.22;4.25;;;;;;;;;;5028746;28;20049;-64
2023/05/01 00:15:28;;;;;;;7.55;3.83;;;;;;;;;;5014338;28;20026;-62
2023/05/01 00:17:54;;;;;;;8.80;3.88;;;;;;;;;;5035396;28;20067;-63
2023/05/01 00:20:19;;;;;;;9.90;4.15;;;;;;;;;;5044735;28;20391;-62
2023/05/01 00:22:45;;;;;;;9.25;3.60;;;;;;;;;;5035148;28;20119;-63
2023/05/01 00:25:10;;;;;;;8.23;3.83;;;;;;;;;;5031534;28;20381;-63
2023/05/01 00:27:36;;;;;;;9.00;4.10;;;;;;;;;;5020472;28;20104;-62
2023/05/01 00:30:02;;;;;;;8.23;3.90;;;;;;;;;;5025065;28;20030;-62
2023/05/01 00:32:28;;;;;;;6.70;3.72;;;;;;;;;;5016690;28;20134;-62
2023/05/01 00:34:55;;;;;;;8.98;3.88;;;;;;;;;;5026263;28;20030;-62
2023/05/01 00:37:20;;;;;;;9.02;4.07;;;;;;;;;;5031212;28;20084;-62
2023/05/01 00:39:46;;;;;;;9.05;4.00;;;;;;;;;;5030432;28;20459;-62
2023/05/01 00:42:11;;;;;;;11.23;3.92;;;;;;;;;;5030332;28;20037;-63
2023/05/01 00:44:36;;;;;;;9.82;3.97;;;;;;;;;;5014344;28;20655;-62
2023/05/01 00:47:03;;;;;;;8.90;4.10;;;;;;;;;;5034368;28;20063;-61
2023/05/01 00:49:28;;;;;;;7.20;3.97;;;;;;;;;;5015796;28;20033;-62
2023/05/01 00:51:54;;;;;;;10.98;4.75;;;;;;;;;;5033060;28;20376;-61
2023/05/01 00:54:21;;;;;;;6.97;4.00;;;;;;;;;;5032896;28;20452;-62
2023/05/01 00:56:47;;;;;;;10.75;4.18;;;;;;;;;;5023133;28;20033;-61
2023/05/01 00:59:13;;;;;;;9.35;3.88;;;;;;;;;;5033981;28;20044;-61
2023/05/01 01:01:40;;;;;;;7.82;3.90;;;;;;;;;;5013536;28;20033;-62
2023/05/01 01:04:06;;;;;;;9.85;3.72;;;;;;;;;;5014428;28;20038;-63
2023/05/01 01:06:51;;;;;;;8.82;4.45;;;;;;;;;;5021668;28;20042;-62
2023/05/01 01:09:20;;;;;;;7.85;4.10;;;;;;;;;;5029951;28;20072;-62
2023/05/01 01:11:56;;;;;;;9.05;4.20;;;;;;;;;;5015792;28;20029;-63
2023/05/01 01:14:31;;;;;;;8.48;3.97;;;;;;;;;;5026941;28;20132;-62
2023/05/01 01:17:05;;;;;;;8.45;4.20;;;;;;;;;;5021161;28;20052;-62
2023/05/01 01:19:52;;;;;;;7.57;3.88;;;;;;;;;;5027949;28;20120;-62
2023/05/01 01:22:22;;;;;;;10.27;4.00;;;;;;;;;;5025113;28;20069;-62
2023/05/01 01:24:48;;;;;;;8.30;4.15;;;;;;;;;;5018822;28;20030;-63
2023/05/01 01:27:32;;;;;;;9.50;4.20;;;;;;;;;;5012973;28;20042;-62
2023/05/01 01:30:01;;;;;;;9.82;4.25;;;;;;;;;;5027716;28;20026;-62
2023/05/01 01:32:54;;;;;;;9.98;4.05;;;;;;;;;;5030153;28;20083;-63
2023/05/01 01:35:25;;;;;;;8.98;3.95;;;;;;;;;;5025194;28;20065;-63
2023/05/01 01:38:00;;;;;;;7.00;4.15;;;;;;;;;;5025110;28;20049;-63
2023/05/01 01:40:33;;;;;;;8.95;3.92;;;;;;;;;;5020611;28;20041;-63
2023/05/01 01:43:04;;;;;;;9.82;3.88;;;;;;;;;;5014813;28;20483;-64
2023/05/01 01:45:41;;;;;;;8.55;4.03;;;;;;;;;;5020911;28;20044;-62
2023/05/01 01:48:13;;;;;;;12.43;4.10;;;;;;;;;;5016400;28;20049;-62
2023/05/01 01:50:41;;;;;;;9.30;4.20;;;;;;;;;;5021888;28;20053;-61
2023/05/01 01:53:08;;;;;;;9.77;3.95;;;;;;;;;;5013547;28;20061;-62
2023/05/01 01:55:35;;;;;;;9.85;3.97;;;;;;;;;;5024457;28;20472;-61
2023/05/01 01:58:02;;;;;;;6.25;4.00;;;;;;;;;;5012608;28;20030;-62
2023/05/01 02:00:29;;;;;;;8.40;4.00;;;;;;;;;;5012845;28;20025;-62
2023/05/01 02:02:56;;;;;;;8.25;4.45;;;;;;;;;;5013654;28;20033;-61
2023/05/01 02:05:23;;;;;;;8.50;4.00;;;;;;;;;;5032768;28;20040;-61
2023/05/01 02:07:50;;;;;;;8.52;4.13;;;;;;;;;;5029592;28;20037;-62
2023/05/01 02:10:17;;;;;;;10.77;4.03;;;;;;;;;;5028574;28;20059;-61
2023/05/01 02:12:47;;;;;;;8.90;4.03;;;;;;;;;;5044466;28;20030;-62
2023/05/01 02:15:17;;;;;;;10.07;4.10;;;;;;;;;;5023534;28;20392;-62
2023/05/01 02:17:43;;;;;;;6.70;3.80;;;;;;;;;;5019879;28;20041;-63
2023/05/01 02:20:11;;;;;;;7.50;4.22;;;;;;;;;;5032580;28;20067;-62
2023/05/01 02:22:38;;;;;;;9.75;4.20;;;;;;;;;;5030806;28;20025;-62
2023/05/01 02:25:08;;;;;;;9.73;4.20;;;;;;;;;;5032878;28;20038;-62
2023/05/01 02:27:42;;;;;;;10.80;4.25;;;;;;;;;;5031014;28;20041;-61
2023/05/01 02:30:08;;;;;;;8.50;4.05;;;;;;;;;;5028137;28;20045;-62
2023/05/01 02:32:34;;;;;;;7.00;4.18;;;;;;;;;;5025290;28;20068;-62
2023/05/01 02:35:00;;;;;;;10.75;4.05;;;;;;;;;;5012828;28;20345;-62
2023/05/01 02:37:26;;;;;;;7.43;3.92;;;;;;;;;;5031169;28;20076;-61
2023/05/01 02:39:53;;;;;;;9.55;4.35;;;;;;;;;;5022791;28;20030;-63
2023/05/01 02:42:21;;;;;;;9.20;3.97;;;;;;;;;;5029806;28;20033;-63
2023/05/01 02:44:54;;;;;;;7.30;3.85;;;;;;;;;;5029391;28;20226;-62
2023/05/01 02:47:22;;;;;;;8.82;4.18;;;;;;;;;;5032335;28;20539;-62
2023/05/01 02:49:49;;;;;;;11.27;4.30;;;;;;;;;;5014206;28;20117;-62
2023/05/01 02:52:16;;;;;;;11.00;4.50;;;;;;;;;;5017225;28;20026;-62
2023/05/01 02:54:45;;;;;;;8.25;4.07;;;;;;;;;;5013460;28;20041;-61
2023/05/01 02:57:11;;;;;;;10.82;4.18;;;;;;;;;;5023246;28;20033;-62
2023/05/01 02:59:37;;;;;;;10.07;4.50;;;;;;;;;;5027147;28;20536;-62
2023/05/01 03:02:02;;;;;;;12.10;4.43;;;;;;;;;;5025510;28;20033;-62
2023/05/01 03:04:28;;;;;;;8.05;4.18;;;;;;;;;;5024968;28;20388;-62
2023/05/01 03:06:54;;;;;;;7.93;4.22;;;;;;;;;;5031203;28;20075;-62
2023/05/01 03:09:20;;;;;;;10.50;4.25;;;;;;;;;;5016529;28;20083;-62
2023/05/01 03:11:45;;;;;;;8.52;4.07;;;;;;;;;;5012413;28;20037;-62
2023/05/01 03:14:11;;;;;;;8.30;4.15;;;;;;;;;;5013458;28;20041;-63
2023/05/01 03:16:36;;;;;;;7.47;4.45;;;;;;;;;;5016214;28;20048;-62
2023/05/01 03:19:02;;;;;;;11.35;4.20;;;;;;;;;;5026298;28;20065;-62
2023/05/01 03:21:27;;;;;;;9.65;4.20;;;;;;;;;;5031443;28;20384;-62
2023/05/01 03:23:53;;;;;;;7.05;3.85;;;;;;;;;;5010817;28;20037;-62
2023/05/01 03:26:18;;;;;;;9.23;4.07;;;;;;;;;;5013654;28;20090;-62
2023/05/01 03:28:44;;;;;;;9.25;4.20;;;;;;;;;;5013724;28;20037;-61
2023/05/01 03:31:09;;;;;;;8.35;4.15;;;;;;;;;;5012172;28;20033;-62
2023/05/01 03:33:35;;;;;;;9.32;4.18;;;;;;;;;;5013060;28;20037;-62
2023/05/01 03:36:02;;;;;;;7.78;3.90;;;;;;;;;;5010187;28;20548;-62
2023/05/01 03:38:29;;;;;;;9.80;4.13;;;;;;;;;;5010862;28;20046;-61
2023/05/01 03:40:55;;;;;;;8.73;4.30;;;;;;;;;;5011527;28;20133;-62
2023/05/01 03:43:21;;;;;;;9.82;4.53;;;;;;;;;;5011665;28;20064;-61
2023/05/01 03:45:46;;;;;;;8.25;4.35;;;;;;;;;;5011003;28;20033;-62
2023/05/01 03:48:13;;;;;;;8.32;4.00;;;;;;;;;;5014486;28;20040;-62
2023/05/01 03:50:38;;;;;;;9.77;4.80;;;;;;;;;;5015887;28;20026;-61
2023/05/01 03:53:03;;;;;;;8.05;4.00;;;;;;;;;;5021689;28;20033;-62
2023/05/01 03:55:29;;;;;;;9.20;4.65;;;;;;;;;;5010671;28;20567;-63
2023/05/01 03:57:54;;;;;;;9.02;4.53;;;;;;;;;;5015542;28;20033;-62
2023/05/01 04:00:20;;;;;;;8.55;4.00;;;;;;;;;;5011220;28;20033;-62
2023/05/01 04:02:46;;;;;;;10.98;4.25;;;;;;;;;;5029356;28;20087;-63
2023/05/01 04:05:12;;;;;;;9.40;4.55;;;;;;;;;;5014666;28;20053;-62
2023/05/01 04:07:37;;;;;;;6.63;4.30;;;;;;;;;;5021529;28;20037;-61
2023/05/01 04:10:03;;;;;;;9.57;4.18;;;;;;;;;;5017660;28;20034;-62
2023/05/01 04:12:29;;;;;;;9.18;4.38;;;;;;;;;;5011441;28;20045;-61
2023/05/01 04:14:54;;;;;;;7.57;4.22;;;;;;;;;;5012261;28;20085;-62
2023/05/01 04:17:20;;;;;;;7.90;4.18;;;;;;;;;;5009925;28;20040;-61
2023/05/01 04:19:46;;;;;;;8.15;4.35;;;;;;;;;;5024715;28;20029;-62
2023/05/01 04:22:12;;;;;;;8.18;4.10;;;;;;;;;;5022862;28;20061;-62
2023/05/01 04:24:37;;;;;;;7.00;3.88;;;;;;;;;;5020231;28;20026;-62
2023/05/01 04:27:04;;;;;;;7.65;4.22;;;;;;;;;;5020824;28;20435;-61
2023/05/01 04:29:30;;;;;;;8.55;4.53;;;;;;;;;;5014705;28;20042;-62
2023/05/01 04:31:55;;;;;;;8.93;4.28;;;;;;;;;;5024221;28;20359;-62
2023/05/01 04:34:21;;;;;;;7.93;4.45;;;;;;;;;;5020734;28;20373;-62
2023/05/01 04:36:46;;;;;;;9.50;4.25;;;;;;;;;;5021738;28;20033;-63
2023/05/01 04:39:11;;;;;;;9.48;4.28;;;;;;;;;;5032627;28;20053;-63
2023/05/01 04:41:37;;;;;;;9.32;4.50;;;;;;;;;;5026811;28;20044;-62
2023/05/01 04:44:02;;;;;;;11.18;4.32;;;;;;;;;;5015820;28;20384;-62
2023/05/01 04:46:28;;;;;;;8.85;4.63;;;;;;;;;;5025395;28;20026;-62
2023/05/01 04:48:53;;;;;;;8.70;4.82;;;;;;;;;;5014052;28;20611;-62
2023/05/01 04:51:19;;;;;;;11.52;4.20;;;;;;;;;;5013773;28;20121;-62
2023/05/01 04:53:44;;;;;;;7.97;4.47;;;;;;;;;;5014065;28;20026;-62
2023/05/01 04:56:10;;;;;;;10.50;4.55;;;;;;;;;;5017132;28;20160;-62
2023/05/01 04:58:35;;;;;;;8.52;5.00;;;;;;;;;;5014711;28;20503;-61
2023/05/01 05:01:01;;;;;;;9.30;4.68;;;;;;;;;;5032101;28;20041;-62
2023/05/01 05:03:26;;;;;;;11.07;4.60;;;;;;;;;;5031979;28;20057;-63
2023/05/01 05:05:51;;;;;;;10.65;5.82;;;;;;;;;;5028599;28;20033;-62
2023/05/01 05:08:17;;;;;;;10.82;5.35;;;;;;;;;;5020153;28;20065;-62
2023/05/01 05:10:42;;;;;;;13.63;5.70;;;;;;;;;;5017044;28;20021;-61
2023/05/01 05:13:08;;;;;;;12.77;5.45;;;;;;;;;;5016287;28;20038;-62
2023/05/01 05:15:34;;;;;;;9.27;5.45;;;;;;;;;;5025874;28;20026;-61
2023/05/01 05:17:59;;;;;;;11.35;5.35;;;;;;;;;;5033225;28;20036;-61
2023/05/01 05:20:25;;;;;;;9.13;4.75;;;;;;;;;;5017774;28;20500;-61
2023/05/01 05:22:51;;;;;;;10.75;4.80;;;;;;;;;;5015955;28;20500;-61
2023/05/01 05:25:16;;;;;;;10.05;5.05;;;;;;;;;;5013356;28;20029;-61
2023/05/01 05:27:42;;;;;;;10.73;5.22;;;;;;;;;;5015814;28;20029;-61
2023/05/01 05:30:08;;;;;;;10.00;5.18;;;;;;;;;;5030089;28;20100;-62
2023/05/01 05:32:33;;;;;;;12.05;5.43;;;;;;;;;;5014809;28;20499;-62
2023/05/01 05:34:59;;;;;;;9.55;5.05;;;;;;;;;;5018982;28;20041;-61
2023/05/01 05:37:24;;;;;;;11.73;6.10;;;;;;;;;;5016513;28;20057;-62
2023/05/01 05:39:51;;;;;;;11.93;5.32;;;;;;;;;;5026557;28;20026;-61
2023/05/01 05:42:16;;;;;;;11.52;5.43;;;;;;;;;;5013458;28;20030;-61
2023/05/01 05:44:42;;;;;;;12.73;5.80;;;;;;;;;;5012896;28;20030;-62
2023/05/01 05:47:07;;;;;;;12.38;6.13;;;;;;;;;;5016445;28;20029;-63
2023/05/01 05:49:32;;;;;;;10.90;5.90;;;;;;;;;;5026544;28;20076;-61
2023/05/01 05:51:58;;;;;;;12.15;5.30;;;;;;;;;;5025559;28;20448;-62
2023/05/01 05:54:23;;;;;;;11.68;5.43;;;;;;;;;;5018034;28;20056;-62
2023/05/01 05:56:48;;;;;;;11.82;5.30;;;;;;;;;;5025308;28;20025;-62
2023/05/01 05:59:14;;;;;;;12.70;5.47;;;;;;;;;;5030146;28;20056;-62
2023/05/01 06:01:41;;;;;;;9.70;4.97;;;;;;;;;;5031035;28;20060;-62
2023/05/01 06:04:07;;;;;;;12.55;5.30;;;;;;;;;;5026706;28;20034;-62
2023/05/01 06:06:33;;;;;;;11.02;4.78;;;;;;;;;;5025137;28;20032;-62
2023/05/01 06:08:59;;;;;;;10.63;5.20;;;;;;;;;;5032490;28;20056;-61
2023/05/01 06:11:24;;;;;;;10.40;5.20;;;;;;;;;;5032017;28;20464;-62
2023/05/01 06:13:50;;;;;;;8.85;5.18;;;;;;;;;;5031843;28;20095;-62
2023/05/01 06:16:15;;;;;;;10.77;5.38;;;;;;;;;;5029766;28;20040;-62
2023/05/01 06:18:41;;;;;;;11.88;5.50;;;;;;;;;;5031907;28;20064;-62
2023/05/01 06:21:06;;;;;;;8.73;5.15;;;;;;;;;;5032275;28;20041;-61
2023/05/01 06:23:32;;;;;;;10.73;5.32;;;;;;;;;;5032836;28;20037;-62
2023/05/01 06:25:58;;;;;;;12.30;5.65;;;;;;;;;;5024973;28;20030;-61
2023/05/01 06:28:24;;;;;;;13.05;5.32;;;;;;;;;;5012977;28;20109;-61
2023/05/01 06:30:49;;;;;;;9.20;5.40;;;;;;;;;;5025545;28;20037;-61
2023/05/01 06:33:15;;;;;;;9.75;5.43;;;;;;;;;;5030605;28;20038;-61
2023/05/01 06:35:40;;;;;;;11.07;5.80;;;;;;;;;;5029831;28;20030;-61
2023/05/01 06:38:05;;;;;;;9.27;5.70;;;;;;;;;;5030913;28;20452;-61
2023/05/01 06:40:33;;;;;;;10.75;5.45;;;;;;;;;;5031003;28;20025;-61
2023/05/01 06:42:59;;;;;;;11.23;6.10;;;;;;;;;;5031926;28;20222;-61
2023/05/01 06:45:25;;;;;;;12.00;6.07;;;;;;;;;;5031873;28;20444;-61
2023/05/01 06:47:50;;;;;;;11.68;6.43;;;;;;;;;;5029224;28;20049;-61
2023/05/01 06:50:15;;;;;;;11.77;6.40;;;;;;;;;;5031191;28;20033;-61
2023/05/01 06:52:41;;;;;;;14.25;6.20;;;;;;;;;;5030911;28;20029;-61
2023/05/01 06:55:07;;;;;;;13.30;6.72;;;;;;;;;;5031275;28;20468;-61
2023/05/01 06:57:32;;;;;;;11.70;7.10;;;;;;;;;;5030025;28;20348;-61
2023/05/01 06:59:57;;;;;;;13.38;6.32;;;;;;;;;;5031155;28;20447;-61
2023/05/01 07:02:23;;;;;;;11.98;6.75;;;;;;;;;;5031475;28;20037;-61
2023/05/01 07:04:48;;;;;;;12.15;6.85;;;;;;;;;;5030777;28;20034;-62
2023/05/01 07:07:14;;;;;;;12.32;6.97;;;;;;;;;;5029123;28;20041;-61
2023/05/01 07:09:40;;;;;;;10.23;5.93;;;;;;;;;;5030448;28;20369;-61
2023/05/01 07:12:05;;;;;;;13.98;6.63;;;;;;;;;;5031930;28;20029;-63
2023/05/01 07:14:31;;;;;;;10.70;5.90;;;;;;;;;;5029946;28;20053;-64
2023/05/01 07:16:57;;;;;;;10.10;6.25;;;;;;;;;;5030929;28;20490;-65
2023/05/01 07:19:22;;;;;;;14.27;6.32;;;;;;;;;;5030896;28;20025;-64
2023/05/01 07:21:48;;;;;;;9.77;5.80;;;;;;;;;;5030660;28;20022;-64
2023/05/01 07:24:13;;;;;;;9.20;5.68;;;;;;;;;;5028777;28;20068;-64
2023/05/01 07:26:39;;;;;;;10.30;5.57;;;;;;;;;;5031676;28;20101;-64
2023/05/01 07:29:04;;;;;;;11.27;5.72;;;;;;;;;;5028761;28;20472;-64
2023/05/01 07:31:30;;;;;;;9.98;5.38;;;;;;;;;;5031854;28;20594;-64
2023/05/01 07:33:55;;;;;;;9.60;5.40;;;;;;;;;;5029908;28;20030;-63
2023/05/01 07:36:21;;;;;;;10.65;5.82;;;;;;;;;;5031868;28;20034;-63
2023/05/01 07:38:47;;;;;;;8.80;5.20;;;;;;;;;;5021434;28;20076;-63
2023/05/01 07:41:13;;;;;;;10.32;5.22;;;;;;;;;;5031732;28;20021;-63
2023/05/01 07:43:38;;;;;;;12.25;5.25;;;;;;;;;;5017244;28;20092;-64
2023/05/01 07:46:04;;;;;;;9.70;5.00;;;;;;;;;;5019986;28;20067;-64
2023/05/01 07:48:31;;;;;;;10.88;5.10;;;;;;;;;;5030603;28;20036;-65
2023/05/01 07:51:00;;;;;;;9.93;5.25;;;;;;;;;;5030937;28;20033;-64
2023/05/01 07:53:25;;;;;;;9.23;4.95;;;;;;;;;;5030877;28;20030;-64
2023/05/01 07:55:51;;;;;;;10.18;5.50;;;;;;;;;;5028374;28;20037;-63
2023/05/01 07:58:16;;;;;;;10.23;5.43;;;;;;;;;;5030551;28;20048;-65
2023/05/01 08:00:44;;;;;;;8.95;4.72;;;;;;;;;;5031331;28;20030;-64
2023/05/01 08:03:09;;;;;;;9.45;4.93;;;;;;;;;;5030009;28;20037;-64
2023/05/01 08:05:35;;;;;;;9.25;5.00;;;;;;;;;;5033271;28;20480;-65
2023/05/01 08:08:00;;;;;;;11.15;4.95;;;;;;;;;;5032468;28;20041;-63
2023/05/01 08:10:27;;;;;;;9.52;5.00;;;;;;;;;;5035293;28;20582;-65
2023/05/01 08:12:52;;;;;;;9.15;4.70;;;;;;;;;;5033456;28;20037;-64
2023/05/01 08:15:19;;;;;;;8.15;4.80;;;;;;;;;;5035143;28;20148;-65
2023/05/01 08:17:45;;;;;;;11.15;4.93;;;;;;;;;;5033444;28;20036;-62
2023/05/01 08:20:11;;;;;;;9.38;4.70;;;;;;;;;;5033901;28;20029;-65
2023/05/01 08:22:37;;;;;;;6.78;4.30;;;;;;;;;;5034637;28;20064;-65
2023/05/01 08:25:03;;;;;;;8.70;4.38;;;;;;;;;;5033467;28;20785;-65
2023/05/01 08:27:29;;;;;;;8.48;4.32;;;;;;;;;;5035109;28;20480;-64
2023/05/01 08:29:54;;;;;;;7.53;4.65;;;;;;;;;;5032978;28;20033;-63
2023/05/01 08:32:20;;;;;;;8.20;3.75;;;;;;;;;;5034295;28;20064;-63
2023/05/01 08:34:46;;;;;;;6.10;3.53;;;;;;;;;;5032930;28;20040;-63
2023/05/01 08:37:11;;;;;;;5.32;3.03;;;;;;;;;;5032792;28;20081;-64
2023/05/01 08:39:37;;;;;;;8.80;3.47;;;;;;;;;;5032155;28;20083;-64
2023/05/01 08:42:02;;;;;;;5.32;3.13;;;;;;;;;;5032110;28;20353;-64
2023/05/01 08:44:30;;;;;;;5.78;3.05;;;;;;;;;;5033451;28;20079;-63
2023/05/01 08:47:04;;;;;;;8.75;3.22;;;;;;;;;;5031703;28;20033;-63
2023/05/01 08:49:33;;;;;;;5.93;3.10;;;;;;;;;;5033642;28;20067;-63
2023/05/01 08:52:01;;;;;;;5.45;2.90;;;;;;;;;;5022420;28;20087;-63
2023/05/01 08:54:30;;;;;;;4.20;2.72;;;;;;;;;;5033074;28;20029;-63
2023/05/01 08:57:04;;;;;;;6.72;2.78;;;;;;;;;;5029913;28;20040;-64
2023/05/01 08:59:33;;;;;;;4.75;2.80;;;;;;;;;;5041471;28;20617;-65
2023/05/01 09:02:06;;;;;;;6.13;3.10;;;;;;;;;;5039393;28;20484;-62
2023/05/01 09:04:32;;;;;;;5.47;3.22;;;;;;;;;;5034239;28;20053;-63
2023/05/01 09:07:00;;;;;;;4.70;3.00;;;;;;;;;;5030277;28;20037;-62
2023/05/01 09:09:27;;;;;;;5.18;3.25;;;;;;;;;;5034617;28;20033;-64
2023/05/01 09:12:00;;;;;;;4.22;2.80;;;;;;;;;;5019044;28;20042;-62
2023/05/01 09:14:29;;;;;;;4.95;3.05;;;;;;;;;;5018856;28;20052;-63
2023/05/01 09:16:55;;;;;;;5.25;2.90;;;;;;;;;;5036124;28;20030;-63
2023/05/01 09:19:21;;;;;;;6.35;3.00;;;;;;;;;;5032439;28;20060;-64
2023/05/01 09:21:46;;;;;;;6.93;3.13;;;;;;;;;;5033178;28;20116;-63
2023/05/01 09:24:12;;;;;;;5.55;2.90;;;;;;;;;;5032627;28;20033;-63
2023/05/01 09:26:41;;;;;;;6.65;2.90;;;;;;;;;;5032165;28;20183;-64
2023/05/01 09:29:09;;;;;;;6.05;2.90;;;;;;;;;;5032285;28;20042;-63
2023/05/01 09:31:35;;;;;;;4.72;2.70;;;;;;;;;;5033332;28;20115;-66
2023/05/01 09:34:02;;;;;;;5.60;2.90;;;;;;;;;;5032549;28;20039;-63
2023/05/01 09:36:32;;;;;;;5.38;2.60;;;;;;;;;;5029184;28;20084;-63
2023/05/01 09:38:59;;;;;;;7.28;2.60;;;;;;;;;;5032640;28;20060;-63
2023/05/01 09:41:25;;;;;;;4.28;2.70;;;;;;;;;;5031781;28;20057;-63
2023/05/01 09:43:52;;;;;;;5.22;2.60;;;;;;;;;;5033021;28;20041;-67
2023/05/01 09:46:18;;;;;;;4.13;2.70;;;;;;;;;;5032612;28;20116;-63
2023/05/01 09:48:58;;;;;;;4.72;2.90;;;;;;;;;;5033319;28;20116;-66
2023/05/01 09:51:26;;;;;;;4.35;2.60;;;;;;;;;;5029416;28;20041;-63
2023/05/01 09:53:53;;;;;;;4.60;2.70;;;;;;;;;;5031690;28;20029;-67
2023/05/01 09:56:20;;;;;;;4.50;2.67;;;;;;;;;;5031924;28;20443;-63
2023/05/01 09:58:47;;;;;;;4.50;2.63;;;;;;;;;;5031728;28;20029;-64
2023/05/01 10:01:12;;;;;;;4.93;2.80;;;;;;;;;;5030491;28;20028;-64
2023/05/01 10:03:38;;;;;;;7.15;2.92;;;;;;;;;;5030854;28;20033;-63
2023/05/01 10:06:03;;;;;;;3.83;2.70;;;;;;;;;;5030608;28;20033;-64
2023/05/01 10:08:48;;;;;;;6.78;2.88;;;;;;;;;;5033884;28;20054;-63
2023/05/01 10:11:14;;;;;;;6.15;2.95;;;;;;;;;;5016085;28;20128;-64
2023/05/01 10:13:39;;;;;;;3.88;2.60;;;;;;;;;;5031600;28;20572;-64
2023/05/01 10:16:07;;;;;;;6.05;2.72;;;;;;;;;;5030841;28;20468;-63
2023/05/01 10:18:38;;;;;;;6.00;2.80;;;;;;;;;;5032299;28;20052;-63
2023/05/01 10:21:06;;;;;;;3.90;2.42;;;;;;;;;;5030547;28;20440;-64
2023/05/01 10:23:32;;;;;;;6.97;2.90;;;;;;;;;;5032652;28;20033;-63
2023/05/01 10:26:01;;;;;;;4.63;2.45;;;;;;;;;;5030897;28;20486;-62
2023/05/01 10:28:28;;;;;;;4.85;2.80;;;;;;;;;;5030851;28;20040;-62
2023/05/01 10:30:55;;;;;;;5.95;2.60;;;;;;;;;;5016704;28;20049;-65
2023/05/01 10:33:21;;;;;;;4.97;2.95;;;;;;;;;;5017964;28;20480;-63
2023/05/01 10:35:53;;;;;;;5.65;3.13;;;;;;;;;;5032764;28;20443;-63
2023/05/01 10:38:24;;;;;;;4.85;2.85;;;;;;;;;;5029148;28;20042;-64
2023/05/01 10:40:50;;;;;;;4.32;2.92;;;;;;;;;;5031848;28;20041;-62
2023/05/01 10:43:26;;;;;;;4.22;2.90;;;;;;;;;;5025653;28;20038;-62
2023/05/01 10:46:14;;;;;;;3.63;2.70;;;;;;;;;;5032540;28;20065;-66
2023/05/01 10:48:39;;;;;;;4.65;2.78;;;;;;;;;;5015196;28;20045;-64
2023/05/01 10:51:14;;;;;;;5.07;3.00;;;;;;;;;;5031405;28;20033;-63
2023/05/01 10:53:44;;;;;;;7.00;3.05;;;;;;;;;;5031030;28;20110;-63
2023/05/01 10:56:30;;;;;;;4.25;2.70;;;;;;;;;;5031102;28;20033;-63
2023/05/01 10:59:03;;;;;;;3.75;2.63;;;;;;;;;;5014749;28;20393;-68
2023/05/01 11:01:35;;;;;;;3.95;2.60;;;;;;;;;;5031743;28;20028;-64
2023/05/01 11:04:03;;;;;;;5.85;2.60;;;;;;;;;;5029963;28;20396;-63
2023/05/01 11:06:29;;;;;;;4.05;2.22;;;;;;;;;;5026545;28;20068;-64
2023/05/01 11:08:56;;;;;;;5.20;2.45;;;;;;;;;;5038953;28;20112;-68
2023/05/01 11:11:24;;;;;;;4.53;2.60;;;;;;;;;;5032310;28;20523;-63
2023/05/01 11:13:59;;;;;;;4.05;2.60;;;;;;;;;;5030120;28;20033;-63
2023/05/01 11:16:36;;;;;;;4.05;2.45;;;;;;;;;;5031044;28;20953;-63
2023/05/01 11:19:06;;;;;;;6.05;2.40;;;;;;;;;;5030667;28;20040;-64
2023/05/01 11:21:34;;;;;;;5.35;2.45;;;;;;;;;;5030516;28;20398;-63
2023/05/01 11:24:00;;;;;;;4.75;2.25;;;;;;;;;;5028832;28;20447;-64
2023/05/01 11:26:27;;;;;;;5.63;2.72;;;;;;;;;;5030300;28;20535;-64
2023/05/01 11:28:54;;;;;;;8.35;2.22;;;;;;;;;;5032011;28;20108;-63
2023/05/01 11:31:20;;;;;;;3.15;2.38;;;;;;;;;;5028586;28;20029;-62
2023/05/01 11:33:46;;;;;;;4.05;2.35;;;;;;;;;;5012418;28;20033;-63
2023/05/01 11:36:13;;;;;;;3.95;2.08;;;;;;;;;;5018789;28;20030;-63
2023/05/01 11:38:52;;;;;;;2.97;2.00;;;;;;;;;;5031432;28;20057;-62
2023/05/01 11:41:22;;;;;;;3.72;2.22;;;;;;;;;;5029264;28;20188;-63
2023/05/01 11:43:57;;;;;;;5.07;2.30;;;;;;;;;;5031624;28;20033;-63
2023/05/01 11:46:26;;;;;;;3.33;2.30;;;;;;;;;;5028283;28;20387;-63
2023/05/01 11:48:56;;;;;;;3.70;2.30;;;;;;;;;;5031647;28;20033;-63
2023/05/01 11:51:23;;;;;;;5.40;2.00;;;;;;;;;;5026247;28;20041;-63
2023/05/01 11:54:03;;;;;;;2.72;1.80;;;;;;;;;;5028020;28;20266;-64
2023/05/01 11:56:29;;;;;;;4.40;2.08;;;;;;;;;;5031854;28;20432;-62
2023/05/01 11:58:56;;;;;;;5.43;2.40;;;;;;;;;;5031424;28;20022;-63
2023/05/01 12:01:36;;;;;;;3.55;2.00;;;;;;;;;;5030197;28;20117;-63
2023/05/01 12:04:02;;;;;;;3.33;2.10;;;;;;;;;;5030996;28;20022;-65
2023/05/01 12:06:57;;;;;;;3.63;2.00;;;;;;;;;;5029711;28;20030;-64
2023/05/01 12:09:26;;;;;;;2.65;2.10;;;;;;;;;;5013274;28;20045;-62
2023/05/01 12:11:52;;;;;;;4.85;1.90;;;;;;;;;;5028583;28;20113;-62
2023/05/01 12:14:20;;;;;;;4.38;2.00;;;;;;;;;;5030808;28;20109;-63
2023/05/01 12:16:46;;;;;;;3.20;1.60;;;;;;;;;;5030288;28;20044;-62
2023/05/01 12:19:13;;;;;;;2.28;1.58;;;;;;;;;;5028979;28;20033;-65
2023/05/01 12:21:39;;;;;;;2.63;1.55;;;;;;;;;;5029367;28;20422;-62
2023/05/01 12:24:14;;;;;;;3.90;1.98;;;;;;;;;;5030738;28;20037;-63
2023/05/01 12:26:41;;;;;;;2.72;1.90;;;;;;;;;;5025892;28;20064;-63
2023/05/01 12:29:07;;;;;;;5.28;1.92;;;;;;;;;;5030892;28;20045;-63
2023/05/01 12:31:34;;;;;;;4.07;2.00;;;;;;;;;;5029903;28;20403;-62
2023/05/01 12:34:04;;;;;;;3.38;1.90;;;;;;;;;;5029499;28;20052;-65
2023/05/01 12:36:31;;;;;;;3.15;1.70;;;;;;;;;;5051339;28;20029;-61
2023/05/01 12:39:05;;;;;;;2.45;1.80;;;;;;;;;;5042472;28;20045;-62
2023/05/01 12:41:42;;;;;;;2.83;1.90;;;;;;;;;;5028581;28;20033;-62
2023/05/01 12:44:19;;;;;;;3.72;1.90;;;;;;;;;;5028579;28;20486;-63
2023/05/01 12:46:54;;;;;;;4.32;2.00;;;;;;;;;;5029877;28;20030;-62
2023/05/01 12:49:21;;;;;;;3.08;1.90;;;;;;;;;;5029364;28;20178;-62
2023/05/01 12:51:51;;;;;;;2.97;2.00;;;;;;;;;;5028740;28;20025;-62
2023/05/01 12:54:25;;;;;;;3.80;2.20;;;;;;;;;;5032025;28;20125;-65
2023/05/01 12:56:55;;;;;;;3.42;1.80;;;;;;;;;;5031965;28;20123;-62
2023/05/01 12:59:25;;;;;;;2.85;1.70;;;;;;;;;;5033620;28;20029;-62
2023/05/01 13:01:57;;;;;;;;;;;;;;;;;;5032200;28;20059;-61
2023/05/01 13:04:24;;;;;;;3.17;1.60;;;;;;;;;;5031823;28;19984;-62
2023/05/01 13:06:50;;;;;;;2.58;1.80;;;;;;;;;;5027849;28;20033;-62
2023/05/01 13:09:16;;;;;;;3.22;1.70;;;;;;;;;;5042520;28;20052;-62
2023/05/01 13:11:42;;;;;;;2.05;1.50;;;;;;;;;;5035914;28;20392;-62
2023/05/01 13:14:08;;;;;;;3.03;1.50;;;;;;;;;;5015246;28;20045;-63
2023/05/01 13:16:43;;;;;;;4.85;1.67;;;;;;;;;;5033606;28;20092;-62
2023/05/01 13:19:08;;;;;;;3.78;1.60;;;;;;;;;;5019670;28;20037;-62
2023/05/01 13:21:33;;;;;;;3.55;1.70;;;;;;;;;;5033718;28;20037;-61
2023/05/01 13:24:00;;;;;;;4.18;1.92;;;;;;;;;;5032421;28;20061;-64
2023/05/01 13:26:27;;;;;;;2.55;1.92;;;;;;;;;;5028094;28;20456;-64
2023/05/01 13:28:53;;;;;;;4.18;2.13;;;;;;;;;;5036357;28;20489;-63
2023/05/01 13:31:18;;;;;;;8.70;2.10;;;;;;;;;;5033688;28;20124;-62
2023/05/01 13:33:43;;;;;;;3.83;1.90;;;;;;;;;;5032896;28;20030;-62
2023/05/01 13:36:13;;;;;;;5.22;1.95;;;;;;;;;;5033156;28;20036;-63
2023/05/01 13:38:48;;;;;;;3.42;2.17;;;;;;;;;;5018148;28;20053;-63
2023/05/01 13:41:19;;;;;;;4.15;2.10;;;;;;;;;;5012939;28;20038;-64
2023/05/01 13:43:45;;;;;;;;;;;;;;;;;;5029554;28;20052;-62
2023/05/01 13:46:12;;;;;;;3.28;1.98;;;;;;;;;;5030658;28;20374;-63
2023/05/01 13:48:40;;;;;;;2.70;2.00;;;;;;;;;;5030315;28;20033;-62
2023/05/01 13:51:10;;;;;;;4.32;2.05;;;;;;;;;;5030310;28;20492;-66
2023/05/01 13:53:37;;;;;;;3.88;2.20;;;;;;;;;;5033393;28;20033;-63
2023/05/01 13:56:04;;;;;;;3.33;2.03;;;;;;;;;;5031941;28;20064;-66
2023/05/01 13:58:31;;;;;;;4.28;2.20;;;;;;;;;;5031037;28;20057;-62
2023/05/01 14:00:56;;;;;;;3.47;2.10;;;;;;;;;;5013323;28;20041;-63
2023/05/01 14:03:22;;;;;;;3.65;2.00;;;;;;;;;;5029888;28;20835;-62
2023/05/01 14:05:47;;;;;;;4.40;1.80;;;;;;;;;;5032106;28;20036;-62
2023/05/01 14:08:16;;;;;;;4.22;2.05;;;;;;;;;;5031331;28;20029;-64
2023/05/01 14:10:41;;;;;;;2.75;1.90;;;;;;;;;;5026769;28;20021;-64
2023/05/01 14:13:07;;;;;;;4.30;2.10;;;;;;;;;;5031606;28;20079;-66
2023/05/01 14:15:32;;;;;;;2.70;2.10;;;;;;;;;;5031750;28;20037;-62
2023/05/01 14:18:04;;;;;;;3.75;2.33;;;;;;;;;;5033044;28;20033;-62
2023/05/01 14:20:29;;;;;;;3.05;2.22;;;;;;;;;;5029170;28;20049;-62
2023/05/01 14:22:55;;;;;;;4.28;2.10;;;;;;;;;;5028066;28;20032;-64
2023/05/01 14:25:26;;;;;;;4.82;2.42;;;;;;;;;;5042524;28;20083;-63
2023/05/01 14:27:52;;;;;;;;;;;;;;;;;;5024028;28;20033;-63
2023/05/01 14:30:26;;;;;;;3.33;2.08;;;;;;;;;;5026131;28;19914;-63
2023/05/01 14:32:51;;;;;;;5.30;2.25;;;;;;;;;;5032817;28;20045;-62
2023/05/01 14:35:20;;;;;;;2.83;2.10;;;;;;;;;;5028470;28;20368;-64
2023/05/01 14:37:46;;;;;;;5.35;2.20;;;;;;;;;;5029702;28;20499;-62
2023/05/01 14:40:11;;;;;;;4.47;2.10;;;;;;;;;;5027893;28;20037;-62
2023/05/01 14:42:44;;;;;;;3.03;2.13;;;;;;;;;;5030684;28;20029;-64